createdAt,value
2023-04-15T00:00:14.482Z,8.5
2023-04-15T00:02:23.936Z,8.5
2023-04-15T00:04:33.457Z,8.5
2023-04-15T00:06:41.573Z,8.5
2023-04-15T00:08:50.496Z,8.5
2023-04-15T00:11:02.628Z,8.5
2023-04-15T00:13:10.630Z,8.5
2023-04-15T00:15:18.593Z,8.5
2023-04-15T00:17:27.784Z,8.5
2023-04-15T00:19:35.617Z,8.5
2023-04-15T00:21:43.367Z,8.5
2023-04-15T00:23:53.592Z,8.5
2023-04-15T00:26:01.519Z,8.5
2023-04-15T00:28:09.845Z,8.6
2023-04-15T00:30:18.652Z,8.6
2023-04-15T00:32:27.738Z,8.6
2023-04-15T00:34:35.604Z,8.6
2023-04-15T00:36:43.358Z,8.6
2023-04-15T00:38:51.084Z,8.6
2023-04-15T00:40:58.954Z,8.6
2023-04-15T00:43:06.977Z,8.6
2023-04-15T00:45:15.587Z,8.7
2023-04-15T00:47:24.072Z,8.7
2023-04-15T00:49:33.274Z,8.7
2023-04-15T00:51:41.452Z,8.7
2023-04-15T00:53:49.195Z,8.7
2023-04-15T00:55:57.231Z,8.7
2023-04-15T00:58:07.178Z,8.8
2023-04-15T01:00:16.617Z,8.8
2023-04-15T01:02:25.739Z,8.8
2023-04-15T01:04:35.403Z,8.9
2023-04-15T01:06:43.344Z,8.9
2023-04-15T01:08:51.542Z,8.9
2023-04-15T01:11:03.389Z,8.9
2023-04-15T01:13:11.324Z,8.9
2023-04-15T01:15:19.274Z,9
2023-04-15T01:17:27.133Z,8.9
2023-04-15T01:19:37.969Z,9
2023-04-15T01:21:49.664Z,9
2023-04-15T01:23:59.876Z,8.9
2023-04-15T01:26:10.034Z,9
2023-04-15T01:28:24.553Z,9
2023-04-15T01:30:35.875Z,9
2023-04-15T01:32:54.222Z,9
2023-04-15T01:35:06.401Z,9.1
2023-04-15T01:37:16.207Z,9.1
2023-04-15T01:39:24.282Z,9
2023-04-15T01:41:34.369Z,9
2023-04-15T01:43:42.831Z,9.1
2023-04-15T01:45:50.860Z,9.1
2023-04-15T01:47:58.780Z,9.1
2023-04-15T01:50:17.729Z,9
2023-04-15T01:52:35.568Z,9
2023-04-15T01:54:44.889Z,9
2023-04-15T01:56:54.236Z,9
2023-04-15T01:59:02.580Z,9
2023-04-15T02:01:13.521Z,9
2023-04-15T02:03:28.616Z,8.9
2023-04-15T02:05:44.084Z,9
2023-04-15T02:07:57.482Z,9
2023-04-15T02:10:05.680Z,9
2023-04-15T02:12:14.765Z,9
2023-04-15T02:14:22.488Z,8.9
2023-04-15T02:16:31.105Z,8.9
2023-04-15T02:18:38.885Z,9
2023-04-15T02:20:47.189Z,9
2023-04-15T02:22:57.214Z,8.9
2023-04-15T02:25:06.286Z,8.9
2023-04-15T02:27:20.558Z,8.9
2023-04-15T02:29:38.070Z,8.9
2023-04-15T02:31:50.061Z,8.9
2023-04-15T02:33:58.767Z,8.9
2023-04-15T02:36:10.268Z,8.9
2023-04-15T02:38:18.543Z,8.9
2023-04-15T02:40:31.310Z,8.9
2023-04-15T06:48:17.549Z,9.4
2023-04-15T06:50:25.619Z,9.5
2023-04-15T06:52:54.860Z,9.5
2023-04-15T06:55:21.773Z,9.6
2023-04-15T06:57:48.553Z,9.6
2023-04-15T07:00:15.684Z,9.6
2023-04-15T07:02:42.508Z,9.6
2023-04-15T07:05:10.931Z,9.7
2023-04-15T07:07:37.331Z,9.6
2023-04-15T07:10:06.169Z,9.7
2023-04-15T07:12:32.861Z,9.7
2023-04-15T07:14:59.601Z,9.7
2023-04-15T07:17:26.443Z,9.7
2023-04-15T07:19:53.029Z,9.7
2023-04-15T07:22:19.934Z,9.7
2023-04-15T07:24:46.751Z,9.6
2023-04-15T07:27:14.769Z,9.6
2023-04-15T07:29:41.423Z,9.7
2023-04-15T07:32:08.283Z,9.7
2023-04-15T07:34:34.750Z,9.7
2023-04-15T07:37:01.527Z,9.7
2023-04-15T07:39:31.437Z,9.8
2023-04-15T07:41:59.181Z,9.8
2023-04-15T07:44:27.740Z,9.8
2023-04-15T07:46:54.670Z,9.8
2023-04-15T07:49:21.558Z,9.9
2023-04-15T07:51:48.952Z,10
2023-04-15T07:54:15.500Z,10
2023-04-15T07:56:42.435Z,9.9
2023-04-15T07:59:09.919Z,10
2023-04-15T08:01:39.213Z,10
2023-04-15T08:04:05.831Z,10
2023-04-15T08:06:32.995Z,10.1
2023-04-15T08:08:59.702Z,10.2
2023-04-15T08:11:26.637Z,10.2
2023-04-15T08:13:53.553Z,10.2
2023-04-15T08:16:22.425Z,10.2
2023-04-15T08:18:52.342Z,10.3
2023-04-15T08:21:20.798Z,10.4
2023-04-15T08:23:49.334Z,10.5
2023-04-15T08:26:16.011Z,10.6
2023-04-15T08:28:43.695Z,10.7
2023-04-15T08:31:10.675Z,10.9
2023-04-15T08:33:37.448Z,11.1
2023-04-15T08:36:06.108Z,11.1
2023-04-15T08:38:33.010Z,11.3
2023-04-15T08:41:01.406Z,11.5
2023-04-15T08:43:34.855Z,11.8
2023-04-15T08:46:02.494Z,12.1
2023-04-15T08:48:33.193Z,12.3
2023-04-15T08:51:00.030Z,12.4
2023-04-15T08:53:29.841Z,12.7
2023-04-15T08:55:58.831Z,12.9
2023-04-15T08:58:07.006Z,12.9
2023-04-15T09:00:15.979Z,12.9
2023-04-15T09:02:25.752Z,13
2023-04-15T09:04:34.640Z,13.1
2023-04-15T09:06:42.552Z,13.1
2023-04-15T09:08:52.865Z,13
2023-04-15T09:11:00.715Z,12.8
2023-04-15T09:13:09.325Z,12.9
2023-04-15T09:15:17.616Z,13.1
2023-04-15T09:17:26.544Z,13.3
2023-04-15T09:19:34.541Z,13.4
2023-04-15T09:21:42.606Z,13.7
2023-04-15T09:23:59.129Z,14
2023-04-15T09:26:07.598Z,14.3
2023-04-15T09:28:15.743Z,14.7
2023-04-15T09:30:23.753Z,15
2023-04-15T09:32:31.865Z,15.2
2023-04-15T09:34:39.746Z,15.3
2023-04-15T09:36:57.744Z,15.4
2023-04-15T09:39:07.074Z,15.5
2023-04-15T09:41:19.519Z,15.8
2023-04-15T09:43:39.794Z,15.9
2023-04-15T09:45:50.708Z,15.6
2023-04-15T09:47:59.287Z,15.6
2023-04-15T09:50:08.161Z,15.6
2023-04-15T09:52:15.984Z,15.4
2023-04-15T09:54:25.348Z,15.4
2023-04-15T09:56:36.380Z,15.3
2023-04-15T09:58:44.159Z,15.4
2023-04-15T10:00:53.454Z,15.4
2023-04-15T10:03:02.030Z,15.4
2023-04-15T10:05:12.857Z,15.3
2023-04-15T10:07:23.537Z,15
2023-04-15T10:09:33.207Z,14.9
2023-04-15T10:11:43.203Z,14.8
2023-04-15T10:13:58.236Z,14.8
2023-04-15T10:16:08.400Z,14.9
2023-04-15T10:18:18.481Z,15
2023-04-15T10:20:26.362Z,15.2
2023-04-15T10:22:34.302Z,15.2
2023-04-15T10:24:45.344Z,15.1
2023-04-15T10:26:53.760Z,15
2023-04-15T10:29:02.476Z,14.9
2023-04-15T10:31:13.663Z,14.9
2023-04-15T10:33:24.571Z,14.9
2023-04-15T10:35:34.118Z,14.9
2023-04-15T10:37:41.992Z,15
2023-04-15T10:39:51.191Z,14.9
2023-04-15T10:42:08.178Z,14.9
2023-04-15T10:44:16.205Z,15
2023-04-15T10:46:25.872Z,14.8
2023-04-15T10:48:33.873Z,14.8
2023-04-15T10:50:41.881Z,15
2023-04-15T10:52:52.662Z,15
2023-04-15T10:55:15.615Z,15
2023-04-15T10:57:24.800Z,14.9
2023-04-15T10:59:32.775Z,15
2023-04-15T11:01:54.653Z,15.2
2023-04-15T11:04:03.206Z,15.5
2023-04-15T11:06:12.204Z,15.8
2023-04-15T11:08:20.571Z,16.1
2023-04-15T11:10:56.835Z,16.3
2023-04-15T11:13:05.886Z,16.3
2023-04-15T11:15:31.877Z,16.4
2023-04-15T11:17:39.674Z,16.2
2023-04-15T11:19:47.661Z,16
2023-04-15T11:21:55.434Z,16.1
2023-04-15T11:24:04.243Z,16.2
2023-04-15T11:26:13.999Z,16.3
2023-04-15T11:28:21.848Z,16.3
2023-04-15T11:30:32.362Z,16.3
2023-04-15T11:32:43.980Z,16.7
2023-04-15T11:34:53.162Z,16.8
2023-04-15T11:37:00.934Z,16.9
2023-04-15T11:39:08.689Z,16.7
2023-04-15T11:41:21.853Z,16.6
2023-04-15T11:43:35.493Z,16.4
2023-04-15T11:45:53.256Z,16.3
2023-04-15T11:48:11.764Z,16.1
2023-04-15T11:50:20.574Z,16.1
2023-04-15T11:52:28.369Z,16.1
2023-04-15T11:54:37.482Z,16
2023-04-15T11:56:51.690Z,16.1
2023-04-15T11:59:00.323Z,16.3
2023-04-15T12:01:08.594Z,16.7
2023-04-15T12:03:20.170Z,16.8
2023-04-15T12:05:28.079Z,16.7
2023-04-15T12:07:59.384Z,16.7
2023-04-15T12:10:07.713Z,16.9
2023-04-15T12:12:19.979Z,17
2023-04-15T12:14:29.392Z,16.9
2023-04-15T12:16:48.551Z,17
2023-04-15T12:18:59.839Z,16.7
2023-04-15T12:21:11.781Z,16.7
2023-04-15T12:23:20.831Z,16.7
2023-04-15T12:25:36.283Z,16.8
2023-04-15T12:27:52.558Z,17
2023-04-15T12:30:05.947Z,17.3
2023-04-15T12:32:14.785Z,17.2
2023-04-15T12:34:29.295Z,17
2023-04-15T12:36:37.169Z,16.8
2023-04-15T12:38:44.926Z,16.9
2023-04-15T12:40:52.911Z,16.9
2023-04-15T12:43:02.345Z,16.7
2023-04-15T12:45:10.444Z,16.4
2023-04-15T12:47:18.245Z,16.3
2023-04-15T12:49:26.676Z,16.6
2023-04-15T12:51:34.498Z,16.7
2023-04-15T12:53:42.377Z,16.9
2023-04-15T12:55:50.162Z,17
2023-04-15T12:57:58.152Z,17.1
2023-04-15T13:00:09.424Z,17.1
2023-04-15T13:02:17.345Z,17.1
2023-04-15T13:04:25.530Z,17.4
2023-04-15T13:06:33.865Z,17.5
2023-04-15T13:08:48.067Z,17.4
2023-04-15T13:11:02.998Z,17.5
2023-04-15T13:13:11.154Z,17.6
2023-04-15T13:15:21.485Z,17.5
2023-04-15T13:17:29.253Z,17.3
2023-04-15T13:19:37.017Z,17.3
2023-04-15T13:21:44.820Z,17.2
2023-04-15T13:23:52.619Z,17.1
2023-04-15T13:26:00.465Z,17.2
2023-04-15T13:28:08.317Z,17.1
2023-04-15T13:30:16.463Z,17.3
2023-04-15T13:32:25.670Z,17.6
2023-04-15T13:34:33.657Z,17.6
2023-04-15T13:36:41.766Z,17.6
2023-04-15T13:38:51.313Z,17.4
2023-04-15T13:40:59.801Z,17.1
2023-04-15T13:43:07.682Z,17.2
2023-04-15T13:45:16.184Z,17.1
2023-04-15T13:47:25.256Z,17.1
2023-04-15T13:49:33.030Z,17.1
2023-04-15T13:51:40.975Z,17.2
2023-04-15T13:53:48.870Z,17.2
2023-04-15T13:55:56.686Z,17.3
2023-04-15T13:58:04.645Z,17.4
2023-04-15T14:00:13.685Z,17.2
2023-04-15T14:02:23.507Z,17
2023-04-15T14:04:33.969Z,16.8
2023-04-15T14:06:41.945Z,16.3
2023-04-15T14:08:50.272Z,16.1
2023-04-15T14:10:58.083Z,15.9
2023-04-15T14:13:05.893Z,15.6
2023-04-15T14:15:13.724Z,15.5
2023-04-15T14:17:21.760Z,15.6
2023-04-15T14:19:32.993Z,15.5
2023-04-15T14:21:41.009Z,15.1
2023-04-15T14:23:48.703Z,14.9
2023-04-15T14:25:56.552Z,14.6
2023-04-15T14:28:04.831Z,14.4
2023-04-15T14:30:13.619Z,14.2
2023-04-15T14:32:21.489Z,14.2
2023-04-15T14:34:29.280Z,14.1
2023-04-15T14:36:38.503Z,13.9
2023-04-15T14:38:47.483Z,13.9
2023-04-15T14:40:56.288Z,13.9
2023-04-15T14:43:04.412Z,13.9
2023-04-15T14:45:13.286Z,13.8
2023-04-15T14:47:21.125Z,13.7
2023-04-15T14:49:28.962Z,13.7
2023-04-15T14:51:39.208Z,13.5
2023-04-15T14:53:48.526Z,13.4
2023-04-15T14:55:56.337Z,13.5
2023-04-15T14:58:04.402Z,13.3
2023-04-15T15:00:15.376Z,13.3
2023-04-15T15:04:36.114Z,13.4
2023-04-15T15:06:46.707Z,13.4
2023-04-15T15:08:55.864Z,13.2
2023-04-15T15:11:03.655Z,13.1
2023-04-15T15:13:11.659Z,13
2023-04-15T15:15:28.414Z,12.9
2023-04-15T15:17:36.780Z,12.9
2023-04-15T15:19:45.227Z,12.9
2023-04-15T15:21:54.495Z,12.9
2023-04-15T15:24:02.284Z,12.9
2023-04-15T15:26:10.260Z,13
2023-04-15T15:28:18.668Z,13
2023-04-15T15:30:26.679Z,12.9
2023-04-15T15:32:34.543Z,12.9
2023-04-15T15:34:42.768Z,12.9
2023-04-15T15:36:50.916Z,12.7
2023-04-15T15:39:00.307Z,12.7
2023-04-15T15:41:08.283Z,12.7
2023-04-15T15:43:16.404Z,12.7
2023-04-15T15:45:24.232Z,12.6
2023-04-15T15:47:32.013Z,12.4
2023-04-15T15:49:40.602Z,12.2
2023-04-15T15:51:49.794Z,12.1
2023-04-15T15:53:57.640Z,12
2023-04-15T15:56:07.538Z,11.9
2023-04-15T15:58:15.382Z,11.9
2023-04-15T16:00:23.860Z,11.9
2023-04-15T16:02:56.290Z,11.8
2023-04-15T16:04:59.366Z,11.8
2023-04-15T16:07:07.381Z,11.7
2023-04-15T16:09:15.201Z,11.6
2023-04-15T16:11:24.833Z,11.6
2023-04-15T16:13:32.867Z,11.6
2023-04-15T16:15:40.743Z,11.5
2023-04-15T16:17:48.466Z,11.4
2023-04-15T16:19:58.358Z,11.4
2023-04-15T16:22:08.580Z,11.4
2023-04-15T16:24:16.502Z,11.4
2023-04-15T16:26:25.570Z,11.5
2023-04-15T16:28:33.383Z,11.4
2023-04-15T16:30:41.676Z,11.4
2023-04-15T16:32:49.472Z,11.3
2023-04-15T16:34:57.256Z,11.3
2023-04-15T16:37:05.041Z,11.3
2023-04-15T16:39:12.732Z,11.1
2023-04-15T16:41:20.823Z,11
2023-04-15T16:43:29.957Z,10.9
2023-04-15T16:45:37.826Z,10.9
2023-04-15T16:47:45.627Z,10.8
2023-04-15T16:49:53.407Z,10.8
2023-04-15T16:52:02.216Z,10.7
2023-04-15T16:54:10.143Z,10.7
2023-04-15T16:56:17.892Z,10.6
2023-04-15T16:58:25.683Z,10.7
2023-04-15T17:00:36.790Z,10.6
2023-04-15T17:02:44.630Z,10.6
2023-04-15T17:04:52.442Z,10.6
2023-04-15T17:07:00.312Z,10.5
2023-04-15T17:09:08.360Z,10.5
2023-04-15T17:11:16.113Z,10.4
2023-04-15T17:13:24.197Z,10.3
2023-04-15T17:15:32.093Z,10.2
2023-04-15T17:17:41.360Z,10.2
2023-04-15T17:19:51.688Z,10.2
2023-04-15T17:22:01.085Z,10.2
2023-04-15T17:24:09.079Z,10.1
2023-04-15T17:26:16.803Z,10.1
2023-04-15T17:28:24.619Z,10
2023-04-15T17:30:33.825Z,10
2023-04-15T17:32:42.976Z,10
2023-04-15T17:34:51.470Z,10
2023-04-15T17:36:59.346Z,10
2023-04-15T17:39:07.319Z,10
2023-04-15T17:41:15.628Z,9.9
2023-04-15T17:43:23.432Z,9.9
2023-04-15T17:45:31.510Z,9.9
2023-04-15T17:47:39.336Z,9.9
2023-04-15T17:49:48.430Z,9.8
2023-04-15T17:51:56.242Z,9.8
2023-04-15T17:54:04.316Z,9.8
2023-04-15T17:56:12.298Z,9.7
2023-04-15T17:58:20.350Z,9.8
2023-04-15T18:00:28.351Z,9.7
2023-04-15T18:02:37.273Z,9.7
2023-04-15T18:04:45.342Z,9.6
2023-04-15T18:06:54.488Z,9.6
2023-04-15T18:09:02.727Z,9.6
2023-04-15T18:11:11.987Z,9.6
2023-04-15T18:13:19.689Z,9.6
2023-04-15T18:15:28.339Z,9.6
2023-04-15T18:17:36.167Z,9.6
2023-04-15T18:19:45.748Z,9.5
2023-04-15T18:21:55.071Z,9.5
2023-04-15T18:24:02.992Z,9.5
2023-04-15T18:26:10.937Z,9.5
2023-04-15T18:28:18.886Z,9.5
2023-04-15T18:30:26.666Z,9.4
2023-04-15T18:32:34.433Z,9.4
2023-04-15T18:34:43.733Z,9.5
2023-04-15T18:36:51.510Z,9.4
2023-04-15T18:39:01.218Z,9.4
2023-04-15T18:41:10.111Z,9.4
2023-04-15T18:43:17.860Z,9.4
2023-04-15T18:45:25.965Z,9.3
2023-04-15T18:47:33.803Z,9.3
2023-04-15T18:49:41.933Z,9.3
2023-04-15T18:51:49.936Z,9.3
2023-04-15T18:53:57.809Z,9.3
2023-04-15T18:56:07.726Z,9.3
2023-04-15T18:58:15.517Z,9.3
2023-04-15T19:00:23.373Z,9.3
2023-04-15T19:02:31.200Z,9.4
2023-04-15T19:04:39.013Z,9.3
2023-04-15T19:06:48.029Z,9.3
2023-04-15T19:09:00.271Z,9.3
2023-04-15T19:11:09.381Z,9.3
2023-04-15T19:13:18.783Z,9.3
2023-04-15T19:15:27.002Z,9.2
2023-04-15T19:17:34.865Z,9.2
2023-04-15T19:19:42.824Z,9.2
2023-04-15T19:21:54.432Z,9.2
2023-04-15T19:24:02.412Z,9.2
2023-04-15T19:26:12.530Z,9.2
2023-04-15T19:28:20.235Z,9.2
2023-04-15T19:30:28.606Z,9.2
2023-04-15T19:32:36.497Z,9.2
2023-04-15T19:34:44.233Z,9.2
2023-04-15T19:36:52.017Z,9.2
2023-04-15T19:39:00.989Z,9.2
2023-04-15T19:41:10.229Z,9.1
2023-04-15T19:43:19.279Z,9.1
2023-04-15T19:45:27.118Z,9.1
2023-04-15T19:47:35.204Z,9.1
2023-04-15T19:49:43.080Z,9.1
2023-04-15T19:51:50.874Z,9.1
2023-04-15T19:53:59.498Z,9.1
2023-04-15T19:56:07.633Z,9.1
2023-04-15T19:58:15.364Z,9.1
2023-04-15T20:00:24.670Z,9.1
2023-04-15T20:02:32.484Z,9.1
2023-04-15T20:04:40.368Z,9.2
2023-04-15T20:06:48.776Z,9.2
2023-04-15T20:08:56.574Z,9.2
2023-04-15T20:11:05.566Z,9.3
2023-04-15T20:13:13.488Z,9.3
2023-04-15T20:15:22.683Z,9.3
2023-04-15T20:17:34.775Z,9.3
2023-04-15T20:19:42.698Z,9.3
2023-04-15T20:21:52.471Z,9.3
2023-04-15T20:24:00.449Z,9.2
2023-04-15T20:26:08.205Z,9.2
2023-04-15T20:28:17.799Z,9.2
2023-04-15T20:30:26.028Z,9.2
2023-04-15T20:32:38.451Z,9.2
2023-04-15T20:34:46.491Z,9.2
2023-04-15T20:36:54.256Z,9.1
2023-04-15T20:39:01.941Z,9.1
2023-04-15T20:41:09.657Z,9.1
2023-04-15T20:43:17.493Z,9
2023-04-15T20:45:25.387Z,9
2023-04-15T20:47:33.089Z,9
2023-04-15T20:49:42.218Z,9
2023-04-15T20:51:50.251Z,9
2023-04-15T20:53:57.944Z,9
2023-04-15T20:56:06.331Z,8.9
2023-04-15T20:58:14.226Z,8.9
2023-04-15T21:00:22.536Z,9.1
2023-04-15T21:02:30.596Z,8.9
2023-04-15T21:04:38.890Z,8.9
2023-04-15T21:06:48.600Z,8.9
2023-04-15T21:08:56.288Z,8.9
2023-04-15T21:11:04.046Z,8.9
2023-04-15T21:13:13.020Z,8.9
2023-04-15T21:15:20.759Z,8.9
2023-04-15T21:17:28.498Z,8.9
2023-04-15T21:19:37.271Z,8.9
2023-04-15T21:21:44.949Z,8.9
2023-04-15T21:23:54.029Z,8.9
2023-04-15T21:26:01.747Z,8.9
2023-04-15T21:28:09.548Z,8.9
2023-04-15T21:30:17.466Z,8.9
2023-04-15T21:32:25.434Z,8.9
2023-04-15T21:34:33.239Z,8.9
2023-04-15T21:36:41.184Z,8.9
2023-04-15T21:38:48.940Z,8.9
2023-04-15T21:40:58.053Z,8.9
2023-04-15T21:43:06.031Z,8.8
2023-04-15T21:45:14.233Z,8.8
2023-04-15T21:47:22.111Z,8.8
2023-04-15T21:49:30.160Z,8.8
2023-04-15T21:51:43.704Z,8.7
2023-04-15T21:53:53.112Z,8.7
2023-04-15T21:56:02.270Z,8.7
2023-04-15T21:58:13.026Z,8.7
2023-04-15T22:00:21.201Z,8.7
2023-04-15T22:02:29.075Z,8.7
2023-04-15T22:04:36.917Z,8.7
2023-04-15T22:06:44.651Z,8.7
2023-04-15T22:09:04.645Z,8.7
2023-04-15T22:11:25.103Z,8.7
2023-04-15T22:13:32.847Z,8.6
2023-04-15T22:15:40.773Z,8.6
2023-04-15T22:17:48.631Z,8.6
2023-04-15T22:19:56.450Z,8.7
2023-04-15T22:22:04.790Z,8.6
2023-04-15T22:24:31.577Z,8.6
2023-04-15T22:26:41.368Z,8.6
2023-04-15T22:28:49.827Z,8.7
2023-04-15T22:30:59.229Z,8.7
2023-04-15T22:33:16.180Z,8.7
2023-04-15T22:35:23.998Z,8.7
2023-04-15T22:37:32.562Z,8.7
2023-04-15T22:39:40.394Z,8.7
2023-04-15T22:41:53.114Z,8.7
2023-04-15T22:44:00.864Z,8.7
2023-04-15T22:46:08.999Z,8.7
2023-04-15T22:48:17.069Z,8.7
2023-04-15T22:50:24.875Z,8.7
2023-04-15T22:52:33.195Z,8.7
2023-04-15T22:54:40.903Z,8.7
2023-04-15T22:56:50.144Z,8.7
2023-04-15T22:58:58.467Z,8.8
2023-04-15T23:01:06.750Z,8.7
2023-04-15T23:03:19.221Z,8.7
2023-04-15T23:05:27.498Z,8.7
2023-04-15T23:07:35.993Z,8.8
2023-04-15T23:09:43.802Z,8.7
2023-04-15T23:11:53.025Z,8.8
2023-04-15T23:14:00.806Z,8.8
2023-04-15T23:16:09.018Z,8.8
2023-04-15T23:18:16.939Z,8.8
2023-04-15T23:20:24.719Z,8.8
2023-04-15T23:22:32.443Z,8.8
2023-04-15T23:24:40.178Z,8.8
2023-04-15T23:26:47.933Z,8.8
2023-04-15T23:28:57.011Z,8.8
2023-04-15T23:31:04.765Z,8.8
2023-04-15T23:33:12.743Z,8.8
2023-04-15T23:35:20.494Z,8.8
2023-04-15T23:37:28.266Z,8.9
2023-04-15T23:39:36.269Z,8.9
2023-04-15T23:41:43.978Z,8.9
2023-04-15T23:43:51.687Z,8.9
2023-04-15T23:46:01.090Z,8.9
2023-04-15T23:48:08.869Z,9
2023-04-15T23:50:16.848Z,8.9
2023-04-15T23:52:24.648Z,9.1
2023-04-15T23:54:32.450Z,9
2023-04-15T23:56:40.271Z,9
2023-04-15T23:58:48.092Z,9.1
